createdAt,value
2019-03-09T00:01:59.787Z,4.70
2019-03-09T00:04:01.189Z,4.70
2019-03-09T00:06:02.939Z,4.70
2019-03-09T00:08:04.267Z,4.70
2019-03-09T00:10:08.223Z,4.70
2019-03-09T00:12:09.647Z,4.70
2019-03-09T00:14:10.964Z,4.80
2019-03-09T00:16:12.324Z,4.80
2019-03-09T00:18:13.757Z,4.80
2019-03-09T00:20:15.134Z,4.80
2019-03-09T00:22:16.474Z,4.80
2019-03-09T00:24:36.391Z,4.80
2019-03-09T00:26:39.731Z,4.80
2019-03-09T00:28:59.720Z,4.80
2019-03-09T00:31:03.378Z,4.80
2019-03-09T00:33:04.938Z,4.80
2019-03-09T00:35:06.289Z,4.90
2019-03-09T00:37:07.689Z,4.90
2019-03-09T00:39:09.368Z,4.80
2019-03-09T00:41:10.712Z,4.80
2019-03-09T00:43:12.102Z,4.80
2019-03-09T00:45:13.431Z,4.70
2019-03-09T00:47:14.855Z,4.80
2019-03-09T00:49:16.226Z,4.80
2019-03-09T00:51:17.620Z,4.80
2019-03-09T00:53:19.028Z,4.70
2019-03-09T00:55:20.405Z,4.80
2019-03-09T00:57:21.986Z,4.80
2019-03-09T00:59:23.360Z,4.80
2019-03-09T01:01:24.721Z,4.80
2019-03-09T01:03:26.099Z,4.80
2019-03-09T01:05:27.475Z,4.80
2019-03-09T01:07:28.854Z,4.80
2019-03-09T01:09:30.255Z,4.80
2019-03-09T01:11:31.600Z,4.80
2019-03-09T01:13:32.960Z,4.80
2019-03-09T01:15:34.517Z,4.90
2019-03-09T01:17:35.883Z,4.90
2019-03-09T01:19:37.232Z,4.90
2019-03-09T01:21:38.673Z,5.00
2019-03-09T01:23:40.030Z,5.00
2019-03-09T01:25:41.439Z,5.00
2019-03-09T01:27:42.811Z,5.00
2019-03-09T01:29:44.131Z,5.00
2019-03-09T01:31:45.619Z,5.00
2019-03-09T01:33:47.015Z,5.00
2019-03-09T01:35:48.368Z,5.00
2019-03-09T01:37:49.725Z,5.10
2019-03-09T01:39:51.087Z,5.10
2019-03-09T01:41:52.495Z,5.10
2019-03-09T01:43:53.866Z,5.20
2019-03-09T01:45:55.283Z,5.20
2019-03-09T01:47:56.682Z,5.20
2019-03-09T01:49:58.001Z,5.20
2019-03-09T01:51:59.371Z,5.30
2019-03-09T01:54:00.753Z,5.40
2019-03-09T01:56:02.139Z,5.40
2019-03-09T01:58:03.501Z,5.40
2019-03-09T02:00:15.338Z,5.50
2019-03-09T02:02:16.711Z,5.50
2019-03-09T02:04:18.109Z,5.50
2019-03-09T02:06:19.672Z,5.50
2019-03-09T02:08:21.034Z,5.50
2019-03-09T02:10:22.398Z,5.50
2019-03-09T02:12:23.787Z,5.50
2019-03-09T02:14:25.207Z,5.60
2019-03-09T02:16:26.569Z,5.60
2019-03-09T02:18:27.947Z,5.60
2019-03-09T02:20:29.442Z,5.60
2019-03-09T02:22:30.870Z,5.70
2019-03-09T02:24:32.268Z,5.70
2019-03-09T02:26:33.607Z,5.70
2019-03-09T02:28:34.978Z,5.70
2019-03-09T02:30:36.567Z,5.70
2019-03-09T02:32:37.972Z,5.80
2019-03-09T02:34:39.313Z,5.80
2019-03-09T02:36:40.710Z,5.80
2019-03-09T02:38:46.591Z,5.80
2019-03-09T02:40:48.184Z,5.80
2019-03-09T02:42:49.542Z,5.80
2019-03-09T02:44:50.910Z,5.80
2019-03-09T02:46:52.310Z,5.90
2019-03-09T02:48:53.673Z,5.90
2019-03-09T02:50:55.025Z,5.90
2019-03-09T02:52:56.412Z,5.90
2019-03-09T02:54:57.768Z,5.90
2019-03-09T02:56:59.134Z,5.90
2019-03-09T02:59:00.531Z,5.90
2019-03-09T03:01:03.795Z,5.90
2019-03-09T03:03:08.889Z,5.90
2019-03-09T03:05:10.395Z,5.90
2019-03-09T03:07:11.757Z,5.90
2019-03-09T03:09:13.110Z,5.90
2019-03-09T03:11:14.592Z,5.80
2019-03-09T03:13:15.943Z,5.90
2019-03-09T03:15:36.753Z,5.90
2019-03-09T03:17:38.104Z,5.90
2019-03-09T03:19:39.613Z,5.80
2019-03-09T03:21:40.977Z,5.80
2019-03-09T03:23:42.328Z,5.80
2019-03-09T03:25:43.811Z,5.80
2019-03-09T03:27:45.192Z,5.80
2019-03-09T03:29:46.597Z,5.80
2019-03-09T03:31:47.947Z,5.90
2019-03-09T03:33:49.308Z,5.90
2019-03-09T03:35:50.867Z,5.90
2019-03-09T03:37:52.220Z,5.90
2019-03-09T03:39:53.576Z,5.90
2019-03-09T03:41:55.058Z,5.90
2019-03-09T03:43:56.434Z,5.90
2019-03-09T03:45:57.797Z,5.90
2019-03-09T03:47:59.157Z,5.90
2019-03-09T03:50:00.648Z,5.90
2019-03-09T03:52:02.086Z,5.90
2019-03-09T03:54:03.474Z,6.00
2019-03-09T03:56:04.896Z,6.00
2019-03-09T03:58:06.516Z,6.00
2019-03-09T04:00:13.349Z,6.00
2019-03-09T04:02:14.720Z,6.00
2019-03-09T04:04:16.116Z,6.00
2019-03-09T04:06:17.700Z,6.00
2019-03-09T04:08:19.299Z,6.00
2019-03-09T04:10:20.923Z,6.00
2019-03-09T04:12:24.706Z,6.00
2019-03-09T04:14:28.354Z,6.00
2019-03-09T04:16:48.014Z,6.00
2019-03-09T04:18:59.735Z,6.00
2019-03-09T04:21:02.073Z,6.10
2019-03-09T04:23:03.813Z,6.10
2019-03-09T04:25:06.887Z,6.10
2019-03-09T04:27:08.377Z,6.10
2019-03-09T04:29:09.768Z,6.20
2019-03-09T04:31:11.131Z,6.20
2019-03-09T04:33:12.530Z,6.20
2019-03-09T04:35:14.275Z,6.30
2019-03-09T04:37:15.612Z,6.30
2019-03-09T04:39:17.011Z,6.30
2019-03-09T04:41:18.335Z,6.30
2019-03-09T04:43:19.687Z,6.30
2019-03-09T04:45:21.079Z,6.40
2019-03-09T04:47:22.431Z,6.40
2019-03-09T04:49:23.794Z,6.40
2019-03-09T04:51:25.174Z,6.40
2019-03-09T04:53:26.540Z,6.50
2019-03-09T04:55:27.926Z,6.50
2019-03-09T04:57:29.270Z,6.40
2019-03-09T04:59:30.713Z,6.40
2019-03-09T05:01:32.030Z,6.30
2019-03-09T05:03:33.465Z,6.30
2019-03-09T05:05:34.846Z,6.20
2019-03-09T05:07:38.722Z,6.20
2019-03-09T05:10:12.070Z,6.20
2019-03-09T05:12:13.413Z,6.20
2019-03-09T05:14:14.797Z,6.10
2019-03-09T05:16:16.140Z,6.00
2019-03-09T05:18:17.492Z,6.00
2019-03-09T05:20:18.904Z,6.10
2019-03-09T05:22:20.259Z,6.10
2019-03-09T05:24:21.661Z,6.00
2019-03-09T05:26:23.129Z,6.00
2019-03-09T05:28:24.485Z,6.00
2019-03-09T05:30:40.870Z,6.00
2019-03-09T05:32:42.250Z,6.00
2019-03-09T05:34:43.698Z,5.90
2019-03-09T05:36:45.031Z,5.90
2019-03-09T05:38:46.371Z,5.90
2019-03-09T05:40:47.734Z,5.90
2019-03-09T05:42:49.096Z,5.90
2019-03-09T05:44:50.480Z,5.90
2019-03-09T05:46:51.874Z,5.90
2019-03-09T05:48:53.220Z,5.80
2019-03-09T05:50:54.558Z,5.80
2019-03-09T05:53:10.057Z,5.80
2019-03-09T05:55:11.714Z,5.80
2019-03-09T05:57:13.070Z,5.90
2019-03-09T05:59:14.488Z,5.80
2019-03-09T06:01:15.800Z,5.80
2019-03-09T06:03:17.190Z,5.80
2019-03-09T06:05:36.892Z,5.80
2019-03-09T06:07:38.217Z,5.80
2019-03-09T06:09:39.559Z,5.80
2019-03-09T06:11:40.954Z,5.80
2019-03-09T06:13:42.284Z,5.80
2019-03-09T06:15:43.658Z,5.80
2019-03-09T06:17:45.043Z,5.80
2019-03-09T06:19:46.797Z,5.80
2019-03-09T06:21:48.136Z,5.80
2019-03-09T06:23:49.526Z,5.80
2019-03-09T06:25:50.997Z,5.80
2019-03-09T06:27:52.362Z,5.80
2019-03-09T06:29:53.725Z,5.70
2019-03-09T06:32:32.974Z,5.80
2019-03-09T06:34:34.308Z,5.80
2019-03-09T06:36:47.360Z,5.80
2019-03-09T06:38:59.091Z,5.80
2019-03-09T06:41:03.274Z,5.80
2019-03-09T06:43:03.703Z,5.80
2019-03-09T06:45:09.200Z,5.70
2019-03-09T06:47:10.587Z,5.80
2019-03-09T06:49:12.193Z,5.80
2019-03-09T06:51:13.514Z,5.70
2019-03-09T06:53:14.855Z,5.80
2019-03-09T06:55:16.310Z,5.80
2019-03-09T06:57:17.672Z,5.80
2019-03-09T06:59:19.017Z,5.80
2019-03-09T07:01:21.369Z,5.80
2019-03-09T07:03:22.701Z,5.80
2019-03-09T07:05:24.057Z,5.80
2019-03-09T07:07:25.438Z,5.80
2019-03-09T07:09:26.820Z,5.90
2019-03-09T07:11:28.186Z,5.90
2019-03-09T07:13:29.592Z,6.00
2019-03-09T07:15:37.939Z,6.00
2019-03-09T07:17:39.341Z,6.00
2019-03-09T07:19:40.715Z,6.10
2019-03-09T07:21:42.115Z,6.10
2019-03-09T07:23:43.529Z,6.20
2019-03-09T07:25:44.909Z,6.20
2019-03-09T07:28:06.782Z,6.20
2019-03-09T07:30:13.139Z,6.30
2019-03-09T07:32:14.510Z,6.40
2019-03-09T07:34:25.928Z,6.50
2019-03-09T07:36:27.312Z,6.50
2019-03-09T07:38:28.652Z,6.50
2019-03-09T07:40:30.009Z,6.50
2019-03-09T07:42:31.387Z,6.50
2019-03-09T07:44:32.766Z,6.60
2019-03-09T07:46:34.110Z,6.70
2019-03-09T07:48:35.483Z,6.70
2019-03-09T07:50:36.842Z,6.70
2019-03-09T07:52:38.229Z,6.70
2019-03-09T07:54:39.596Z,6.80
2019-03-09T07:56:40.945Z,6.80
2019-03-09T07:58:42.333Z,6.90
2019-03-09T08:00:43.820Z,6.90
2019-03-09T08:02:45.159Z,7.00
2019-03-09T08:04:46.509Z,7.00
2019-03-09T08:06:47.888Z,7.10
2019-03-09T08:08:49.227Z,7.10
2019-03-09T08:10:50.573Z,7.10
2019-03-09T08:12:52.065Z,7.10
2019-03-09T08:14:53.445Z,7.10
2019-03-09T08:16:54.806Z,7.20
2019-03-09T08:18:56.367Z,7.20
2019-03-09T08:20:57.724Z,7.20
2019-03-09T08:22:59.073Z,7.30
2019-03-09T08:25:00.649Z,7.30
2019-03-09T08:27:01.989Z,7.40
2019-03-09T08:29:03.359Z,7.40
2019-03-09T08:31:04.753Z,7.30
2019-03-09T08:33:06.127Z,7.30
2019-03-09T08:35:08.481Z,7.30
2019-03-09T08:37:09.868Z,7.30
2019-03-09T08:39:11.272Z,7.30
2019-03-09T08:41:12.599Z,7.20
2019-03-09T08:43:13.938Z,7.20
2019-03-09T08:45:20.076Z,7.20
2019-03-09T08:47:21.427Z,7.10
2019-03-09T08:49:22.792Z,7.10
2019-03-09T08:51:24.159Z,7.00
2019-03-09T08:53:25.494Z,6.90
2019-03-09T08:55:26.916Z,6.90
2019-03-09T08:57:28.241Z,6.80
2019-03-09T08:59:29.653Z,6.80
2019-03-09T09:01:31.100Z,6.80
2019-03-09T09:03:32.462Z,7.00
2019-03-09T09:05:33.816Z,7.20
2019-03-09T09:07:35.308Z,7.40
2019-03-09T09:09:36.694Z,7.60
2019-03-09T09:11:38.050Z,7.90
2019-03-09T09:13:39.433Z,8.10
2019-03-09T09:15:40.829Z,8.20
2019-03-09T09:17:42.196Z,8.40
2019-03-09T09:19:43.585Z,8.50
2019-03-09T09:21:44.946Z,8.70
2019-03-09T09:23:46.288Z,8.80
2019-03-09T09:25:47.665Z,8.90
2019-03-09T09:27:51.669Z,9.10
2019-03-09T09:29:52.585Z,9.20
2019-03-09T09:31:54.062Z,9.20
2019-03-09T09:33:55.426Z,9.00
2019-03-09T09:35:56.812Z,8.90
2019-03-09T09:37:58.376Z,8.80
2019-03-09T09:39:59.777Z,8.80
2019-03-09T09:42:01.233Z,8.80
2019-03-09T09:44:03.317Z,8.70
2019-03-09T09:46:04.772Z,8.70
2019-03-09T09:48:06.158Z,8.70
2019-03-09T09:50:11.200Z,8.70
2019-03-09T09:52:12.565Z,8.80
2019-03-09T09:54:13.978Z,8.90
2019-03-09T09:56:15.391Z,9.00
2019-03-09T09:58:16.788Z,9.40
2019-03-09T10:00:22.178Z,9.50
2019-03-09T10:02:23.519Z,9.50
2019-03-09T10:04:24.907Z,9.40
2019-03-09T10:06:26.268Z,9.30
2019-03-09T10:08:27.662Z,9.30
2019-03-09T10:10:29.878Z,9.30
2019-03-09T10:12:31.967Z,9.50
2019-03-09T10:14:33.343Z,9.70
2019-03-09T10:16:34.759Z,9.90
2019-03-09T10:18:36.146Z,10.10
2019-03-09T10:20:37.504Z,10.40
2019-03-09T10:22:38.837Z,10.40
2019-03-09T10:24:40.211Z,10.30
2019-03-09T10:26:41.587Z,10.20
2019-03-09T10:28:42.986Z,10.30
2019-03-09T10:30:44.348Z,10.30
2019-03-09T10:32:45.824Z,10.50
2019-03-09T10:34:47.195Z,10.40
2019-03-09T10:36:48.587Z,10.30
2019-03-09T10:38:49.938Z,10.20
2019-03-09T10:40:51.520Z,10.10
2019-03-09T10:42:52.864Z,10.20
2019-03-09T10:44:54.196Z,10.20
2019-03-09T10:46:55.566Z,10.20
2019-03-09T10:48:57.215Z,10.20
2019-03-09T10:50:58.557Z,10.30
2019-03-09T10:52:59.919Z,10.20
2019-03-09T10:55:01.321Z,10.20
2019-03-09T10:57:02.666Z,10.20
2019-03-09T10:59:04.042Z,10.30
2019-03-09T11:01:05.830Z,10.30
2019-03-09T11:03:07.346Z,10.30
2019-03-09T11:05:09.994Z,10.30
2019-03-09T11:07:11.356Z,10.40
2019-03-09T11:09:12.749Z,10.30
2019-03-09T11:11:14.132Z,10.30
2019-03-09T11:13:15.564Z,10.30
2019-03-09T11:15:16.953Z,10.30
2019-03-09T11:17:18.345Z,10.30
2019-03-09T11:19:19.712Z,10.20
2019-03-09T11:21:21.276Z,10.20
2019-03-09T11:23:22.644Z,10.20
2019-03-09T11:25:23.979Z,10.30
2019-03-09T11:27:25.361Z,10.30
2019-03-09T11:29:28.269Z,10.30
2019-03-09T11:31:29.853Z,10.20
2019-03-09T11:33:31.262Z,10.30
2019-03-09T11:35:32.950Z,10.30
2019-03-09T11:37:34.458Z,10.30
2019-03-09T11:39:35.844Z,10.40
2019-03-09T11:41:37.311Z,10.50
2019-03-09T11:43:38.682Z,10.50
2019-03-09T11:45:40.075Z,10.50
2019-03-09T11:47:41.428Z,10.50
2019-03-09T11:49:42.774Z,10.60
2019-03-09T11:51:44.167Z,10.60
2019-03-09T11:53:45.525Z,10.70
2019-03-09T11:55:46.866Z,10.70
2019-03-09T11:57:48.256Z,10.80
2019-03-09T11:59:49.817Z,10.90
2019-03-09T12:01:51.159Z,11.00
2019-03-09T12:03:52.510Z,11.00
2019-03-09T12:05:53.930Z,11.10
2019-03-09T12:07:55.265Z,11.00
2019-03-09T12:09:56.605Z,11.00
2019-03-09T12:12:00.999Z,11.00
2019-03-09T12:14:02.495Z,11.00
2019-03-09T12:16:03.952Z,11.00
2019-03-09T12:18:05.353Z,11.00
2019-03-09T12:20:09.412Z,11.00
2019-03-09T12:22:10.749Z,11.00
2019-03-09T12:24:17.449Z,11.00
2019-03-09T12:26:16.242Z,10.90
2019-03-09T12:28:17.750Z,10.90
2019-03-09T12:30:19.423Z,10.90
2019-03-09T12:32:20.789Z,10.90
2019-03-09T12:34:22.175Z,10.80
2019-03-09T12:36:23.542Z,10.80
2019-03-09T12:38:24.886Z,10.80
2019-03-09T12:40:26.307Z,10.70
2019-03-09T12:42:27.689Z,10.70
2019-03-09T12:44:29.027Z,10.70
2019-03-09T12:46:30.695Z,10.70
2019-03-09T12:48:32.067Z,10.70
2019-03-09T12:50:33.420Z,10.70
2019-03-09T12:52:34.805Z,10.70
2019-03-09T12:54:36.402Z,10.80
2019-03-09T12:56:37.777Z,10.80
2019-03-09T12:58:39.101Z,11.00
2019-03-09T13:00:40.516Z,11.00
2019-03-09T13:02:41.882Z,11.10
2019-03-09T13:04:43.322Z,11.00
2019-03-09T13:06:44.710Z,11.00
2019-03-09T13:08:46.076Z,11.00
2019-03-09T13:10:47.440Z,11.00
2019-03-09T13:12:48.805Z,11.00
2019-03-09T13:14:50.460Z,11.00
2019-03-09T13:16:51.837Z,11.00
2019-03-09T13:18:53.243Z,11.00
2019-03-09T13:20:54.587Z,11.10
2019-03-09T13:22:55.952Z,11.10
2019-03-09T13:24:57.340Z,11.10
2019-03-09T13:26:58.702Z,11.20
2019-03-09T13:29:00.112Z,11.20
2019-03-09T13:31:01.460Z,11.30
2019-03-09T13:33:02.795Z,11.40
2019-03-09T13:35:04.370Z,11.60
2019-03-09T13:37:05.730Z,11.70
2019-03-09T13:39:07.635Z,11.70
2019-03-09T13:41:09.014Z,11.60
2019-03-09T13:43:10.397Z,11.70
2019-03-09T13:45:17.019Z,11.80
2019-03-09T13:47:18.401Z,11.90
2019-03-09T13:49:19.772Z,12.00
2019-03-09T13:51:21.198Z,12.00
2019-03-09T13:53:22.587Z,12.00
2019-03-09T13:55:23.948Z,12.00
2019-03-09T13:57:25.283Z,12.00
2019-03-09T13:59:27.441Z,12.00
2019-03-09T14:01:28.980Z,11.90
2019-03-09T14:03:30.428Z,11.90
2019-03-09T14:05:31.790Z,11.80
2019-03-09T14:07:33.171Z,11.80
2019-03-09T14:09:34.737Z,11.90
2019-03-09T14:11:36.103Z,11.90
2019-03-09T14:13:37.458Z,12.00
2019-03-09T14:15:38.858Z,12.10
2019-03-09T14:17:40.196Z,12.10
2019-03-09T14:19:41.564Z,12.00
2019-03-09T14:21:42.931Z,12.00
2019-03-09T14:23:46.210Z,12.20
2019-03-09T14:25:47.583Z,12.40
2019-03-09T14:27:48.967Z,12.40
2019-03-09T14:29:50.307Z,12.20
2019-03-09T14:31:51.667Z,12.10
2019-03-09T14:33:53.044Z,12.10
2019-03-09T14:35:54.390Z,12.00
2019-03-09T14:37:55.750Z,12.10
2019-03-09T14:39:57.156Z,12.20
2019-03-09T14:41:58.524Z,12.30
2019-03-09T14:43:59.885Z,12.40
2019-03-09T14:46:01.256Z,12.60
2019-03-09T14:48:02.596Z,12.90
2019-03-09T14:50:07.279Z,13.00
2019-03-09T14:52:08.635Z,12.90
2019-03-09T14:54:09.993Z,12.90
2019-03-09T14:56:11.369Z,12.80
2019-03-09T14:58:12.752Z,12.60
2019-03-09T15:00:21.852Z,12.60
2019-03-09T15:02:23.221Z,12.70
2019-03-09T15:04:25.271Z,12.70
2019-03-09T15:06:26.637Z,12.90
2019-03-09T15:08:28.016Z,13.10
2019-03-09T15:10:29.389Z,13.30
2019-03-09T15:12:30.846Z,13.30
2019-03-09T15:14:32.203Z,13.10
2019-03-09T15:16:33.595Z,12.90
2019-03-09T15:18:34.940Z,12.70
2019-03-09T15:20:36.285Z,12.50
2019-03-09T15:22:37.672Z,12.40
2019-03-09T15:24:39.132Z,12.30
2019-03-09T15:26:40.515Z,12.20
2019-03-09T15:28:41.894Z,12.00
2019-03-09T15:30:43.513Z,11.60
2019-03-09T15:32:44.882Z,11.10
2019-03-09T15:34:46.528Z,9.90
2019-03-09T15:36:48.539Z,8.60
2019-03-09T15:38:50.314Z,7.80
2019-03-09T15:40:51.717Z,7.30
2019-03-09T15:42:53.145Z,7.00
2019-03-09T15:44:54.584Z,6.90
2019-03-09T15:46:56.041Z,6.70
2019-03-09T15:48:57.572Z,6.70
2019-03-09T15:50:59.193Z,6.70
2019-03-09T15:53:00.567Z,6.80
2019-03-09T15:55:03.527Z,6.90
2019-03-09T15:57:04.925Z,7.00
2019-03-09T15:59:06.417Z,7.10
2019-03-09T16:01:07.919Z,7.10
2019-03-09T16:03:09.301Z,7.10
2019-03-09T16:05:10.859Z,7.00
2019-03-09T16:07:12.357Z,6.80
2019-03-09T16:09:13.766Z,6.60
2019-03-09T16:11:15.143Z,6.60
2019-03-09T16:13:16.530Z,6.70
2019-03-09T16:15:18.029Z,6.70
2019-03-09T16:17:19.429Z,6.70
2019-03-09T16:19:20.759Z,6.70
2019-03-09T16:21:22.162Z,6.60
2019-03-09T16:23:23.522Z,6.50
2019-03-09T16:25:24.887Z,6.50
2019-03-09T16:27:26.289Z,6.40
2019-03-09T16:29:27.676Z,6.40
2019-03-09T16:31:29.038Z,6.50
2019-03-09T16:33:30.447Z,6.50
2019-03-09T16:35:31.796Z,6.40
2019-03-09T16:37:33.260Z,6.40
2019-03-09T16:39:34.668Z,6.50
2019-03-09T16:41:36.039Z,6.50
2019-03-09T16:43:37.428Z,6.50
2019-03-09T16:45:38.822Z,6.60
2019-03-09T16:47:40.202Z,6.60
2019-03-09T16:49:41.640Z,6.60
2019-03-09T16:51:42.978Z,6.60
2019-03-09T16:53:44.389Z,6.60
2019-03-09T16:55:45.748Z,6.60
2019-03-09T16:57:47.101Z,6.60
2019-03-09T16:59:48.495Z,6.60
2019-03-09T17:01:50.156Z,6.60
2019-03-09T17:03:51.517Z,6.60
2019-03-09T17:05:52.902Z,6.60
2019-03-09T17:07:54.319Z,6.60
2019-03-09T17:09:55.691Z,6.60
2019-03-09T17:11:57.054Z,6.50
2019-03-09T17:13:58.473Z,6.50
2019-03-09T17:15:59.826Z,6.60
2019-03-09T17:18:01.185Z,6.50
2019-03-09T17:20:05.806Z,6.60
2019-03-09T17:22:07.773Z,6.50
2019-03-09T17:24:09.143Z,6.40
2019-03-09T17:26:10.846Z,6.50
2019-03-09T17:28:12.627Z,6.40
2019-03-09T17:30:16.928Z,6.40
2019-03-09T17:32:25.798Z,6.40
2019-03-09T17:34:22.473Z,6.40
2019-03-09T17:36:24.278Z,6.30
2019-03-09T17:38:25.944Z,6.30
2019-03-09T17:40:27.634Z,6.20
2019-03-09T17:42:29.485Z,6.20
2019-03-09T17:44:31.252Z,6.10
2019-03-09T17:46:33.140Z,6.10
2019-03-09T17:48:35.028Z,6.10
2019-03-09T17:50:36.915Z,6.10
2019-03-09T17:52:38.678Z,6.00
2019-03-09T17:54:41.735Z,5.90
2019-03-09T17:56:43.543Z,5.90
2019-03-09T17:58:45.399Z,6.00
2019-03-09T18:00:47.884Z,6.00
2019-03-09T18:02:49.713Z,6.10
2019-03-09T18:04:52.780Z,6.10
2019-03-09T18:06:54.654Z,6.10
2019-03-09T18:08:56.452Z,6.10
2019-03-09T18:11:07.093Z,6.10
2019-03-09T18:13:08.868Z,6.20
2019-03-09T18:15:10.704Z,6.30
2019-03-09T18:17:12.478Z,6.30
2019-03-09T18:19:14.260Z,6.40
2019-03-09T18:21:16.153Z,6.50
2019-03-09T18:23:18.012Z,6.60
2019-03-09T18:25:19.815Z,6.50
2019-03-09T18:27:21.582Z,6.50
2019-03-09T18:29:22.983Z,6.50
2019-03-09T18:31:24.352Z,6.50
2019-03-09T18:33:25.725Z,6.50
2019-03-09T18:35:27.122Z,6.60
2019-03-09T18:37:28.589Z,6.60
2019-03-09T18:39:30.021Z,6.60
2019-03-09T18:41:31.449Z,6.60
2019-03-09T18:43:32.836Z,6.70
2019-03-09T18:45:34.200Z,6.70
2019-03-09T18:47:35.559Z,6.70
2019-03-09T18:49:36.949Z,6.70
2019-03-09T18:51:38.318Z,6.70
2019-03-09T18:53:39.697Z,6.70
2019-03-09T18:55:41.090Z,6.60
2019-03-09T18:57:42.502Z,6.60
2019-03-09T18:59:43.923Z,6.60
2019-03-09T19:01:45.504Z,6.60
2019-03-09T19:03:46.821Z,6.60
2019-03-09T19:05:48.193Z,6.60
2019-03-09T19:07:49.608Z,6.60
2019-03-09T19:09:51.000Z,6.60
2019-03-09T19:11:52.400Z,6.60
2019-03-09T19:13:54.512Z,6.60
2019-03-09T19:15:56.951Z,6.60
2019-03-09T19:17:59.187Z,6.60
2019-03-09T19:20:00.575Z,6.70
2019-03-09T19:22:01.979Z,6.60
2019-03-09T19:24:03.472Z,6.60
2019-03-09T19:26:04.882Z,6.60
2019-03-09T19:28:06.244Z,6.60
2019-03-09T19:30:16.200Z,6.60
2019-03-09T19:32:17.618Z,6.60
2019-03-09T19:34:19.007Z,6.60
2019-03-09T19:36:23.484Z,6.60
2019-03-09T19:38:24.924Z,6.60
2019-03-09T19:40:26.295Z,6.60
2019-03-09T19:42:27.696Z,6.60
2019-03-09T19:44:29.840Z,6.60
2019-03-09T19:46:33.310Z,6.60
2019-03-09T19:48:38.318Z,6.50
2019-03-09T19:50:42.105Z,6.60
2019-03-09T19:52:45.767Z,6.60
2019-03-09T19:54:48.091Z,6.50
2019-03-09T19:56:54.445Z,6.50
2019-03-09T19:58:55.955Z,6.50
2019-03-09T20:00:59.431Z,6.50
2019-03-09T20:03:02.020Z,6.50
2019-03-09T20:05:07.826Z,6.50
2019-03-09T20:07:12.019Z,6.50
2019-03-09T20:09:16.044Z,6.50
2019-03-09T20:11:18.289Z,6.40
2019-03-09T20:13:21.653Z,6.40
2019-03-09T20:15:26.119Z,6.40
2019-03-09T20:17:29.311Z,6.40
2019-03-09T20:19:32.596Z,6.40
2019-03-09T20:21:35.295Z,6.30
2019-03-09T20:23:38.067Z,6.30
2019-03-09T20:25:43.141Z,6.20
2019-03-09T20:27:47.693Z,6.10
2019-03-09T20:29:50.842Z,6.10
2019-03-09T20:31:53.749Z,6.10
2019-03-09T20:33:58.226Z,6.10
2019-03-09T20:36:01.638Z,6.10
2019-03-09T20:38:04.871Z,6.10
2019-03-09T20:40:16.153Z,6.00
2019-03-09T20:42:19.991Z,6.00
2019-03-09T20:44:23.607Z,6.00
2019-03-09T20:46:27.456Z,6.10
2019-03-09T20:48:31.112Z,6.10
2019-03-09T20:50:35.513Z,6.10
2019-03-09T20:52:40.481Z,6.10
2019-03-09T20:54:44.463Z,6.10
2019-03-09T20:56:49.591Z,6.00
2019-03-09T20:58:51.456Z,6.00
2019-03-09T21:00:53.632Z,6.00
2019-03-09T21:02:56.576Z,5.90
2019-03-09T21:05:00.442Z,5.90
2019-03-09T21:07:03.295Z,5.80
2019-03-09T21:09:08.046Z,5.80
2019-03-09T21:11:10.929Z,5.80
2019-03-09T21:13:13.873Z,5.80
2019-03-09T21:15:16.577Z,5.70
2019-03-09T21:17:22.537Z,5.70
2019-03-09T21:19:25.823Z,5.70
2019-03-09T21:21:28.770Z,5.70
2019-03-09T21:23:31.719Z,5.60
2019-03-09T21:25:35.573Z,5.60
2019-03-09T21:27:39.290Z,5.60
2019-03-09T21:29:42.015Z,5.50
2019-03-09T21:31:44.684Z,5.50
2019-03-09T21:33:48.549Z,5.50
2019-03-09T21:35:50.404Z,5.40
2019-03-09T21:37:54.498Z,5.40
2019-03-09T21:39:58.318Z,5.30
2019-03-09T21:42:02.312Z,5.30
2019-03-09T21:44:05.012Z,5.30
2019-03-09T21:46:08.572Z,5.20
2019-03-09T21:48:11.861Z,5.20
2019-03-09T21:50:16.593Z,5.20
2019-03-09T21:52:21.566Z,5.10
2019-03-09T21:54:24.436Z,5.10
2019-03-09T21:56:25.843Z,5.10
2019-03-09T21:58:27.178Z,5.10
2019-03-09T22:00:28.901Z,5.00
2019-03-09T22:02:30.294Z,5.00
2019-03-09T22:04:31.674Z,5.00
2019-03-09T22:06:33.080Z,5.00
2019-03-09T22:08:34.446Z,5.00
2019-03-09T22:10:35.828Z,4.90
2019-03-09T22:12:37.217Z,4.90
2019-03-09T22:14:38.605Z,4.90
2019-03-09T22:16:41.882Z,4.80
2019-03-09T22:18:43.261Z,4.80
2019-03-09T22:20:44.645Z,4.80
2019-03-09T22:22:46.025Z,4.70
2019-03-09T22:24:47.365Z,4.70
2019-03-09T22:26:48.785Z,4.70
2019-03-09T22:28:50.177Z,4.70
2019-03-09T22:30:51.634Z,4.60
2019-03-09T22:32:53.038Z,4.60
2019-03-09T22:34:54.486Z,4.60
2019-03-09T22:36:55.867Z,4.60
2019-03-09T22:38:57.240Z,4.80
2019-03-09T22:40:58.679Z,4.70
2019-03-09T22:43:00.048Z,4.70
2019-03-09T22:45:01.400Z,4.70
2019-03-09T22:47:10.964Z,4.80
2019-03-09T22:49:06.194Z,4.80
2019-03-09T22:51:07.564Z,4.80
2019-03-09T22:53:08.975Z,4.80
2019-03-09T22:55:10.601Z,4.70
2019-03-09T22:57:11.946Z,4.70
2019-03-09T22:59:13.359Z,4.70
2019-03-09T23:01:14.725Z,4.70
2019-03-09T23:03:16.262Z,4.70
2019-03-09T23:05:29.246Z,4.70
2019-03-09T23:07:30.615Z,4.70
2019-03-09T23:09:32.094Z,4.70
2019-03-09T23:11:35.336Z,4.70
2019-03-09T23:13:36.718Z,4.70
2019-03-09T23:15:38.129Z,4.70
2019-03-09T23:17:39.587Z,4.60
2019-03-09T23:19:41.053Z,4.60
2019-03-09T23:21:42.475Z,4.60
2019-03-09T23:23:43.887Z,4.50
2019-03-09T23:25:45.282Z,4.50
2019-03-09T23:27:46.643Z,4.50
2019-03-09T23:29:48.024Z,4.50
2019-03-09T23:31:49.368Z,4.50
2019-03-09T23:33:50.720Z,4.50
2019-03-09T23:35:52.114Z,4.50
2019-03-09T23:37:53.525Z,4.50
2019-03-09T23:39:54.892Z,4.40
2019-03-09T23:41:56.312Z,4.50
2019-03-09T23:43:57.975Z,4.50
2019-03-09T23:45:59.359Z,4.50
2019-03-09T23:48:00.719Z,4.40
2019-03-09T23:50:05.455Z,4.50
2019-03-09T23:52:06.825Z,4.40
2019-03-09T23:54:08.222Z,4.40
2019-03-09T23:56:09.641Z,4.50
2019-03-09T23:58:11.098Z,4.40
